createdAt,value
2019-04-30T00:02:19.286Z,3.73
2019-04-30T00:05:25.644Z,3.20
2019-04-30T00:08:35.490Z,3.60
2019-04-30T00:11:41.256Z,3.72
2019-04-30T00:14:47.846Z,3.50
2019-04-30T00:17:58.508Z,3.20
2019-04-30T00:21:05.452Z,3.00
2019-04-30T00:24:13.272Z,3.92
2019-04-30T00:27:21.106Z,3.50
2019-04-30T00:30:28.113Z,3.57
2019-04-30T00:33:35.366Z,3.47
2019-04-30T00:36:42.265Z,3.58
2019-04-30T00:39:50.827Z,3.57
2019-04-30T00:43:00.218Z,3.00
2019-04-30T00:46:05.155Z,2.80
2019-04-30T00:49:16.183Z,3.37
2019-04-30T00:52:19.835Z,3.17
2019-04-30T00:55:26.306Z,3.20
2019-04-30T00:58:32.701Z,2.83
2019-04-30T01:02:06.053Z,3.02
2019-04-30T01:05:16.359Z,3.20
2019-04-30T01:08:25.345Z,3.50
2019-04-30T01:11:30.887Z,3.03
2019-04-30T01:14:38.610Z,3.20
2019-04-30T01:17:50.998Z,3.40
2019-04-30T01:20:54.790Z,2.93
2019-04-30T01:24:01.276Z,2.80
2019-04-30T01:27:10.463Z,3.30
2019-04-30T01:30:21.085Z,3.27
2019-04-30T01:33:28.386Z,3.57
2019-04-30T01:36:32.795Z,3.17
2019-04-30T01:39:39.252Z,3.10
2019-04-30T01:42:48.655Z,2.47
2019-04-30T01:45:53.782Z,2.93
2019-04-30T01:49:00.169Z,3.10
2019-04-30T01:52:06.594Z,3.00
2019-04-30T01:55:13.129Z,3.03
2019-04-30T01:58:44.565Z,3.23
2019-04-30T02:01:51.232Z,2.90
2019-04-30T02:04:59.141Z,2.70
2019-04-30T02:08:05.682Z,3.07
2019-04-30T02:11:12.047Z,3.40
2019-04-30T02:14:18.953Z,2.87
2019-04-30T02:17:25.347Z,3.00
2019-04-30T02:20:31.812Z,3.30
2019-04-30T02:23:39.224Z,3.20
2019-04-30T02:26:45.819Z,3.05
2019-04-30T02:29:52.192Z,3.20
2019-04-30T02:33:00.504Z,3.10
2019-04-30T02:36:25.652Z,3.20
2019-04-30T02:39:32.058Z,3.17
2019-04-30T02:42:39.868Z,2.70
2019-04-30T02:45:49.610Z,2.27
2019-04-30T02:48:55.794Z,2.10
2019-04-30T02:52:04.008Z,2.17
2019-04-30T02:55:14.474Z,2.27
2019-04-30T02:58:21.956Z,2.20
2019-04-30T03:01:30.543Z,3.00
2019-04-30T03:04:39.374Z,2.80
2019-04-30T03:07:44.641Z,2.80
2019-04-30T03:10:52.918Z,2.47
2019-04-30T03:13:59.595Z,3.30
2019-04-30T03:17:17.007Z,2.83
2019-04-30T03:20:42.144Z,2.83
2019-04-30T03:23:50.262Z,2.80
2019-04-30T03:26:59.228Z,3.33
2019-04-30T03:30:06.011Z,2.90
2019-04-30T03:33:13.555Z,2.90
2019-04-30T03:36:21.722Z,3.10
2019-04-30T03:39:29.742Z,3.10
2019-04-30T03:42:36.471Z,2.90
2019-04-30T03:45:42.817Z,2.70
2019-04-30T03:48:50.418Z,2.73
2019-04-30T03:51:59.596Z,2.70
2019-04-30T03:55:05.079Z,2.67
2019-04-30T03:58:11.491Z,2.60
2019-04-30T04:01:39.721Z,2.30
2019-04-30T04:05:01.081Z,2.70
2019-04-30T04:08:29.186Z,3.00
2019-04-30T04:11:39.694Z,3.30
2019-04-30T04:14:46.101Z,2.90
2019-04-30T04:17:52.588Z,2.70
2019-04-30T04:21:08.746Z,3.10
2019-04-30T04:24:10.643Z,2.75
2019-04-30T04:27:16.339Z,3.23
2019-04-30T04:30:22.748Z,3.00
2019-04-30T04:33:29.834Z,3.13
2019-04-30T04:36:36.254Z,2.90
2019-04-30T04:39:42.649Z,2.60
2019-04-30T04:42:49.497Z,2.77
2019-04-30T04:45:55.899Z,2.90
2019-04-30T04:49:02.652Z,2.80
2019-04-30T04:52:10.281Z,2.37
2019-04-30T04:55:16.910Z,2.50
2019-04-30T04:58:23.265Z,2.30
2019-04-30T05:01:29.746Z,3.00
2019-04-30T05:04:36.183Z,2.37
2019-04-30T05:07:42.570Z,2.40
2019-04-30T05:10:49.520Z,2.40
2019-04-30T05:13:56.073Z,2.20
2019-04-30T05:17:02.519Z,2.47
2019-04-30T05:20:10.008Z,2.33
2019-04-30T05:23:16.636Z,2.13
2019-04-30T05:26:22.991Z,2.50
2019-04-30T05:29:29.425Z,2.70
2019-04-30T05:32:35.909Z,2.30
2019-04-30T05:35:42.930Z,2.50
2019-04-30T05:38:49.292Z,2.43
2019-04-30T05:41:55.579Z,2.50
2019-04-30T05:45:03.772Z,2.77
2019-04-30T05:48:10.242Z,2.77
2019-04-30T05:51:19.287Z,2.70
2019-04-30T05:54:24.765Z,2.80
2019-04-30T05:57:31.355Z,3.07
2019-04-30T06:00:39.757Z,2.60
2019-04-30T06:03:45.691Z,2.10
2019-04-30T06:06:52.154Z,2.22
2019-04-30T06:10:11.169Z,2.60
2019-04-30T06:13:28.665Z,2.53
2019-04-30T06:16:35.353Z,2.57
2019-04-30T06:19:41.734Z,2.37
2019-04-30T06:22:49.683Z,2.10
2019-04-30T06:26:06.896Z,2.00
2019-04-30T06:29:05.305Z,2.17
2019-04-30T06:32:11.769Z,2.27
2019-04-30T06:35:19.362Z,2.20
2019-04-30T06:38:26.412Z,2.23
2019-04-30T06:41:32.774Z,2.20
2019-04-30T06:44:41.872Z,2.23
2019-04-30T06:47:48.893Z,2.20
2019-04-30T06:50:56.672Z,2.00
2019-04-30T06:54:03.017Z,2.20
2019-04-30T06:57:12.027Z,2.10
2019-04-30T07:00:19.572Z,2.20
2019-04-30T07:03:25.936Z,2.10
2019-04-30T07:06:36.990Z,2.23
2019-04-30T07:09:55.787Z,1.90
2019-04-30T07:13:03.701Z,2.10
2019-04-30T07:16:10.986Z,2.10
2019-04-30T07:19:29.965Z,2.10
2019-04-30T07:22:37.698Z,2.43
2019-04-30T07:25:35.182Z,2.00
2019-04-30T07:28:47.872Z,2.17
2019-04-30T07:31:51.652Z,2.10
2019-04-30T07:34:59.421Z,2.00
2019-04-30T07:38:06.116Z,2.30
2019-04-30T07:41:12.695Z,2.07
2019-04-30T07:44:31.000Z,1.93
2019-04-30T07:47:29.614Z,2.57
2019-04-30T07:50:35.756Z,3.37
2019-04-30T07:53:42.627Z,2.30
2019-04-30T07:56:50.724Z,2.10
2019-04-30T07:59:57.223Z,2.03
2019-04-30T08:03:11.749Z,2.30
2019-04-30T08:06:22.005Z,2.60
2019-04-30T08:09:35.661Z,2.73
2019-04-30T08:12:37.569Z,2.60
2019-04-30T08:15:44.257Z,2.43
2019-04-30T08:18:50.726Z,2.63
2019-04-30T08:21:58.592Z,2.33
2019-04-30T08:25:05.141Z,2.60
2019-04-30T08:28:11.518Z,2.83
2019-04-30T08:31:19.614Z,2.50
2019-04-30T08:34:25.938Z,2.87
2019-04-30T08:37:32.337Z,2.70
2019-04-30T08:40:43.116Z,2.40
2019-04-30T08:43:49.662Z,2.40
2019-04-30T08:46:58.864Z,2.30
2019-04-30T08:50:05.514Z,2.33
2019-04-30T08:53:12.165Z,2.10
2019-04-30T08:56:21.682Z,2.70
2019-04-30T08:59:26.444Z,2.80
2019-04-30T09:02:32.824Z,2.90
2019-04-30T09:06:05.446Z,2.80
2019-04-30T09:09:22.715Z,3.70
2019-04-30T09:12:29.986Z,2.47
2019-04-30T09:15:37.500Z,2.47
2019-04-30T09:18:44.020Z,3.23
2019-04-30T09:21:50.567Z,2.77
2019-04-30T09:24:56.934Z,3.27
2019-04-30T09:28:04.520Z,2.73
2019-04-30T09:31:10.935Z,2.80
2019-04-30T09:34:20.351Z,2.98
2019-04-30T09:37:26.718Z,2.90
2019-04-30T09:40:33.177Z,2.67
2019-04-30T09:43:40.518Z,2.70
2019-04-30T09:46:48.899Z,2.63
2019-04-30T09:49:55.371Z,2.93
2019-04-30T09:53:02.225Z,2.70
2019-04-30T09:56:09.655Z,2.70
2019-04-30T09:59:16.155Z,2.90
2019-04-30T10:02:22.620Z,2.80
2019-04-30T10:05:29.392Z,3.00
2019-04-30T10:08:47.479Z,2.90
2019-04-30T10:12:09.699Z,3.83
2019-04-30T10:15:29.016Z,2.80
2019-04-30T10:18:35.293Z,3.30
2019-04-30T10:21:41.837Z,2.90
2019-04-30T10:24:49.446Z,2.80
2019-04-30T10:27:56.069Z,2.60
2019-04-30T10:31:02.556Z,2.33
2019-04-30T10:34:09.655Z,2.22
2019-04-30T10:37:16.100Z,2.20
2019-04-30T10:40:22.489Z,2.60
2019-04-30T10:43:31.842Z,3.00
2019-04-30T10:46:37.316Z,2.80
2019-04-30T10:49:44.245Z,2.97
2019-04-30T10:52:50.600Z,2.90
2019-04-30T10:55:57.006Z,2.80
2019-04-30T10:59:03.624Z,2.35
2019-04-30T11:02:10.123Z,2.53
2019-04-30T11:05:16.549Z,2.60
2019-04-30T11:08:23.168Z,2.47
2019-04-30T11:11:30.598Z,2.50
2019-04-30T11:14:37.353Z,2.50
2019-04-30T11:17:43.902Z,2.75
2019-04-30T11:20:52.021Z,2.08
2019-04-30T11:23:59.519Z,2.75
2019-04-30T11:27:06.546Z,2.60
2019-04-30T11:30:21.395Z,2.70
2019-04-30T11:33:21.671Z,2.40
2019-04-30T11:36:29.218Z,2.50
2019-04-30T11:39:36.028Z,2.77
2019-04-30T11:42:42.509Z,2.60
2019-04-30T11:46:45.016Z,3.90
2019-04-30T11:49:52.415Z,3.25
2019-04-30T11:53:13.984Z,2.70
2019-04-30T11:56:07.060Z,3.62
2019-04-30T11:59:13.790Z,2.95
2019-04-30T12:02:34.646Z,3.37
2019-04-30T12:05:41.131Z,3.80
2019-04-30T12:09:09.406Z,3.80
2019-04-30T12:12:18.937Z,3.57
2019-04-30T12:15:25.399Z,4.00
2019-04-30T12:18:31.874Z,4.83
2019-04-30T12:21:38.319Z,4.03
2019-04-30T12:24:44.938Z,3.80
2019-04-30T12:27:51.291Z,3.73
2019-04-30T12:30:58.902Z,3.23
2019-04-30T12:34:05.510Z,2.73
2019-04-30T12:37:12.128Z,3.30
2019-04-30T12:40:26.660Z,2.80
2019-04-30T12:43:26.620Z,2.90
2019-04-30T12:46:33.166Z,2.97
2019-04-30T12:50:01.473Z,2.87
2019-04-30T12:53:11.917Z,2.80
2019-04-30T12:56:41.346Z,2.70
2019-04-30T12:59:47.810Z,3.10
2019-04-30T13:02:54.231Z,2.80
2019-04-30T13:06:01.861Z,2.70
2019-04-30T13:09:10.832Z,3.10
2019-04-30T13:12:18.157Z,3.17
2019-04-30T13:15:24.862Z,2.93
2019-04-30T13:18:31.215Z,3.20
2019-04-30T13:21:39.445Z,2.72
2019-04-30T13:24:46.104Z,3.00
2019-04-30T13:27:55.409Z,2.60
2019-04-30T13:31:01.832Z,2.40
2019-04-30T13:34:39.669Z,2.92
2019-04-30T13:37:53.236Z,2.83
2019-04-30T13:41:30.804Z,2.70
2019-04-30T13:44:39.400Z,3.00
2019-04-30T13:47:45.880Z,3.13
2019-04-30T13:50:52.288Z,3.20
2019-04-30T13:53:59.298Z,2.97
2019-04-30T13:57:05.611Z,2.90
2019-04-30T14:00:13.781Z,3.20
2019-04-30T14:03:29.137Z,3.30
2019-04-30T14:06:38.901Z,3.20
2019-04-30T14:09:45.257Z,3.67
2019-04-30T14:12:55.407Z,3.70
2019-04-30T14:16:01.800Z,3.57
2019-04-30T14:19:08.551Z,3.87
2019-04-30T14:22:14.968Z,4.00
2019-04-30T14:25:21.333Z,4.47
2019-04-30T14:28:29.191Z,4.53
2019-04-30T14:31:35.710Z,4.87
2019-04-30T14:34:42.076Z,4.13
2019-04-30T14:37:49.636Z,4.40
2019-04-30T14:40:56.735Z,3.70
2019-04-30T14:44:10.266Z,4.30
2019-04-30T14:47:26.776Z,3.70
2019-04-30T14:50:33.892Z,4.13
2019-04-30T14:53:59.190Z,4.30
2019-04-30T14:57:17.098Z,4.10
2019-04-30T15:00:38.793Z,3.73
2019-04-30T15:03:45.406Z,4.10
2019-04-30T15:06:51.831Z,3.95
2019-04-30T15:09:58.209Z,4.43
2019-04-30T15:13:06.488Z,4.33
2019-04-30T15:16:12.922Z,4.23
2019-04-30T15:19:19.442Z,3.83
2019-04-30T15:22:25.918Z,4.20
2019-04-30T15:25:34.225Z,4.80
2019-04-30T15:28:41.476Z,4.80
2019-04-30T15:31:49.076Z,4.83
2019-04-30T15:34:58.940Z,5.20
2019-04-30T15:38:05.047Z,4.50
2019-04-30T15:41:12.772Z,4.27
2019-04-30T15:44:19.218Z,4.70
2019-04-30T15:47:25.762Z,4.53
2019-04-30T15:50:31.998Z,4.40
2019-04-30T15:53:39.455Z,4.87
2019-04-30T15:56:45.871Z,4.45
2019-04-30T15:59:52.588Z,4.70
2019-04-30T16:03:05.566Z,4.10
2019-04-30T16:06:12.020Z,4.90
2019-04-30T16:09:25.629Z,4.45
2019-04-30T16:12:41.885Z,4.33
2019-04-30T16:15:49.180Z,4.50
2019-04-30T16:18:55.948Z,4.50
2019-04-30T16:22:02.307Z,4.83
2019-04-30T16:25:08.713Z,4.70
2019-04-30T16:28:15.053Z,4.10
2019-04-30T16:31:21.572Z,4.20
2019-04-30T16:34:30.149Z,4.00
2019-04-30T16:37:35.980Z,4.23
2019-04-30T16:40:42.357Z,3.97
2019-04-30T16:43:49.325Z,4.07
2019-04-30T16:46:55.703Z,3.67
2019-04-30T16:50:02.246Z,4.00
2019-04-30T16:53:08.630Z,3.80
2019-04-30T16:56:15.032Z,4.10
2019-04-30T16:59:26.585Z,3.33
2019-04-30T17:02:33.436Z,4.13
2019-04-30T17:05:43.989Z,3.93
2019-04-30T17:09:11.459Z,3.60
2019-04-30T17:12:26.076Z,3.53
2019-04-30T17:15:32.896Z,3.67
2019-04-30T17:18:41.747Z,3.70
2019-04-30T17:21:47.513Z,3.50
2019-04-30T17:24:53.857Z,3.53
2019-04-30T17:28:01.492Z,3.70
2019-04-30T17:31:09.735Z,3.33
2019-04-30T17:34:16.602Z,3.50
2019-04-30T17:37:22.966Z,3.43
2019-04-30T17:40:29.426Z,3.10
2019-04-30T17:43:35.908Z,3.50
2019-04-30T17:46:42.527Z,3.50
2019-04-30T17:49:50.893Z,3.73
2019-04-30T17:53:00.463Z,3.60
2019-04-30T17:56:05.591Z,3.80
2019-04-30T17:59:12.200Z,3.50
2019-04-30T18:02:20.228Z,3.37
2019-04-30T18:05:27.006Z,3.50
2019-04-30T18:08:33.365Z,3.90
2019-04-30T18:11:40.224Z,4.45
2019-04-30T18:14:46.589Z,4.20
2019-04-30T18:18:00.465Z,4.80
2019-04-30T18:21:29.496Z,3.70
2019-04-30T18:24:42.222Z,4.60
2019-04-30T18:27:53.788Z,4.53
2019-04-30T18:31:00.199Z,3.90
2019-04-30T18:34:06.772Z,4.33
2019-04-30T18:37:13.305Z,3.70
2019-04-30T18:40:19.755Z,4.03
2019-04-30T18:43:26.164Z,3.60
2019-04-30T18:46:32.802Z,4.58
2019-04-30T18:49:42.042Z,5.00
2019-04-30T18:52:50.719Z,5.13
2019-04-30T18:55:59.157Z,4.27
2019-04-30T18:59:08.680Z,4.87
2019-04-30T19:02:14.890Z,4.60
2019-04-30T19:05:26.557Z,5.00
2019-04-30T19:08:39.467Z,4.80
2019-04-30T19:11:52.085Z,4.67
2019-04-30T19:15:11.972Z,5.57
2019-04-30T19:18:30.425Z,5.37
2019-04-30T19:21:40.173Z,5.85
2019-04-30T19:24:55.688Z,5.13
2019-04-30T19:27:54.364Z,5.20
2019-04-30T19:31:01.071Z,5.10
2019-04-30T19:34:09.664Z,5.15
2019-04-30T19:37:15.595Z,5.40
2019-04-30T19:40:21.919Z,4.97
2019-04-30T19:43:28.635Z,5.20
2019-04-30T19:46:35.240Z,4.77
2019-04-30T19:49:41.577Z,4.33
2019-04-30T19:52:48.134Z,4.57
2019-04-30T19:55:54.500Z,4.73
2019-04-30T19:59:05.166Z,4.70
2019-04-30T20:02:10.707Z,4.30
2019-04-30T20:05:19.251Z,4.17
2019-04-30T20:08:25.235Z,4.60
2019-04-30T20:11:33.083Z,6.17
2019-04-30T20:14:39.381Z,5.47
2019-04-30T20:17:45.943Z,3.87
2019-04-30T20:20:54.174Z,6.87
2019-04-30T20:24:00.517Z,4.83
2019-04-30T20:27:09.553Z,3.57
2019-04-30T20:30:15.948Z,3.77
2019-04-30T20:33:22.366Z,3.30
2019-04-30T20:36:28.898Z,3.20
2019-04-30T20:39:42.598Z,3.47
2019-04-30T20:42:49.023Z,3.23
2019-04-30T20:45:55.455Z,3.07
2019-04-30T20:49:02.808Z,3.50
2019-04-30T20:52:09.191Z,3.40
2019-04-30T20:55:15.585Z,3.60
2019-04-30T20:58:22.021Z,3.57
2019-04-30T21:01:29.384Z,3.77
2019-04-30T21:04:36.016Z,3.70
2019-04-30T21:07:42.426Z,3.97
2019-04-30T21:10:49.435Z,4.10
2019-04-30T21:13:56.298Z,4.00
2019-04-30T21:17:02.616Z,4.27
2019-04-30T21:20:09.766Z,4.27
2019-04-30T21:23:19.289Z,4.40
2019-04-30T21:26:25.495Z,4.83
2019-04-30T21:29:32.031Z,4.17
2019-04-30T21:33:00.330Z,4.50
2019-04-30T21:36:25.731Z,4.57
2019-04-30T21:39:32.195Z,4.20
2019-04-30T21:42:38.536Z,4.40
2019-04-30T21:45:44.886Z,4.20
2019-04-30T21:48:51.232Z,4.30
2019-04-30T21:51:57.660Z,4.27
2019-04-30T21:55:04.335Z,4.50
2019-04-30T21:58:10.873Z,4.80
2019-04-30T22:01:24.696Z,4.83
2019-04-30T22:04:32.870Z,4.87
2019-04-30T22:07:39.206Z,4.87
2019-04-30T22:10:45.625Z,4.83
2019-04-30T22:13:51.885Z,4.47
2019-04-30T22:16:59.469Z,4.90
2019-04-30T22:20:07.834Z,4.70
2019-04-30T22:23:14.322Z,5.03
2019-04-30T22:26:20.750Z,4.43
2019-04-30T22:29:38.463Z,4.57
2019-04-30T22:32:35.208Z,4.10
2019-04-30T22:36:08.720Z,3.50
2019-04-30T22:39:39.550Z,4.10
2019-04-30T22:42:46.016Z,3.57
2019-04-30T22:45:59.718Z,3.60
2019-04-30T22:49:06.134Z,3.40
2019-04-30T22:52:12.395Z,3.80
2019-04-30T22:55:18.867Z,3.40
2019-04-30T22:58:25.227Z,3.80
2019-04-30T23:01:44.191Z,3.77
2019-04-30T23:04:50.583Z,3.60
2019-04-30T23:07:57.043Z,3.30
2019-04-30T23:11:03.461Z,3.70
2019-04-30T23:14:09.942Z,3.75
2019-04-30T23:17:16.914Z,3.67
2019-04-30T23:20:23.378Z,3.17
2019-04-30T23:23:29.955Z,3.80
2019-04-30T23:26:36.509Z,3.67
2019-04-30T23:29:42.879Z,3.87
2019-04-30T23:32:49.297Z,3.97
2019-04-30T23:35:55.712Z,3.90
2019-04-30T23:39:02.799Z,3.77
2019-04-30T23:42:09.915Z,3.70
2019-04-30T23:45:16.326Z,3.97
2019-04-30T23:48:22.764Z,3.63
2019-04-30T23:51:29.163Z,4.13
2019-04-30T23:54:35.515Z,4.20
2019-04-30T23:57:41.855Z,4.23
